createdAt,value
2023-03-26T00:02:00.140Z,97482.81
2023-03-26T00:07:03.769Z,97616.63
2023-03-26T00:12:07.464Z,97546.84
2023-03-26T00:17:12.589Z,97318.56
2023-03-26T00:22:17.026Z,97396.00
2023-03-26T00:27:20.651Z,97547.41
2023-03-26T00:32:28.051Z,97404.03
2023-03-26T00:37:34.025Z,97562.88
2023-03-26T00:42:38.155Z,97590.97
2023-03-26T00:47:44.156Z,97600.53
2023-03-26T00:52:47.984Z,97572.03
2023-03-26T00:57:51.574Z,97561.53
2023-03-26T01:02:59.304Z,97587.56
2023-03-26T01:08:06.834Z,97558.06
2023-03-26T01:13:11.035Z,97568.75
2023-03-26T01:18:18.119Z,97209.94
2023-03-26T01:23:34.411Z,97559.53
2023-03-26T01:28:43.247Z,97542.47
2023-03-26T01:33:59.928Z,97309.88
2023-03-26T01:39:23.262Z,97008.44
2023-03-26T01:44:40.808Z,97198.50
2023-03-26T01:49:55.814Z,97064.16
2023-03-26T01:55:06.852Z,97117.56
2023-03-26T02:00:29.605Z,97182.19
2023-03-26T02:05:38.245Z,97267.34
2023-03-26T02:10:53.699Z,97400.19
2023-03-26T02:16:01.195Z,97441.31
2023-03-26T02:21:10.160Z,97249.34
2023-03-26T02:26:20.760Z,97440.34
2023-03-26T02:31:38.268Z,96984.50
2023-03-26T02:36:43.367Z,97394.94
2023-03-26T02:41:56.744Z,97430.88
2023-03-26T02:47:03.920Z,97475.31
2023-03-26T02:52:11.089Z,97248.69
2023-03-26T02:57:15.749Z,97250.56
2023-03-26T03:02:40.451Z,97205.34
2023-03-26T03:08:06.209Z,97111.03
2023-03-26T03:13:16.073Z,97170.53
2023-03-26T03:18:30.324Z,97067.84
2023-03-26T03:23:47.232Z,97081.75
2023-03-26T03:28:56.689Z,97079.09
2023-03-26T03:34:13.547Z,97069.63
2023-03-26T03:39:23.371Z,97324.59
2023-03-26T03:44:36.221Z,97171.09
2023-03-26T03:49:49.006Z,97087.44
2023-03-26T03:55:14.945Z,96994.03
2023-03-26T04:01:25.152Z,97321.13
2023-03-26T04:14:23.273Z,97099.19
2023-03-26T04:19:46.895Z,97189.00
2023-03-26T04:24:58.920Z,96940.56
2023-03-26T04:30:05.909Z,96789.88
2023-03-26T04:35:29.502Z,96798.13
2023-03-26T04:40:43.761Z,97003.00
2023-03-26T04:46:46.481Z,97288.19
2023-03-26T04:52:54.832Z,97213.78
2023-03-26T04:58:30.746Z,96773.13
2023-03-26T05:04:42.999Z,96714.47
2023-03-26T05:17:29.016Z,96920.25
2023-03-26T05:22:45.973Z,96928.69
2023-03-26T05:34:24.299Z,97191.34
2023-03-26T05:39:33.910Z,96867.06
2023-03-26T05:45:27.105Z,97029.34
2023-03-26T05:51:15.309Z,96833.78
2023-03-26T05:57:03.170Z,97014.56
2023-03-26T06:03:00.134Z,97136.59
2023-03-26T06:08:31.340Z,96670.59
2023-03-26T06:13:46.303Z,96558.59
2023-03-26T06:19:09.097Z,96908.84
2023-03-26T06:24:39.209Z,96808.75
2023-03-26T06:30:04.241Z,96488.91
2023-03-26T06:35:45.856Z,96841.31
2023-03-26T06:41:16.037Z,96583.59
2023-03-26T06:47:21.649Z,96629.50
2023-03-26T06:59:03.619Z,96607.78
2023-03-26T07:04:33.404Z,96604.94
2023-03-26T07:09:56.315Z,96526.75
2023-03-26T07:15:30.612Z,96608.16
2023-03-26T07:21:14.667Z,96465.72
2023-03-26T07:26:37.688Z,96662.41
2023-03-26T07:32:07.621Z,96716.44
2023-03-26T07:37:44.069Z,96910.13
2023-03-26T07:43:25.568Z,96609.22
2023-03-26T07:48:55.167Z,96982.75
2023-03-26T08:22:13.167Z,96931.53
2023-03-26T08:27:23.964Z,96889.59
2023-03-26T08:32:28.327Z,96921.31
2023-03-26T08:37:33.427Z,96914.31
2023-03-26T08:43:13.163Z,96885.72
2023-03-26T08:49:24.884Z,96901.69
2023-03-26T08:55:17.384Z,96902.34
2023-03-26T09:00:55.480Z,96734.41
2023-03-26T09:06:40.198Z,96845.41
2023-03-26T09:18:17.331Z,96651.34
2023-03-26T09:24:07.258Z,96725.31
2023-03-26T09:29:54.628Z,96490.19
2023-03-26T09:35:15.161Z,96914.38
2023-03-26T09:40:20.446Z,96887.22
2023-03-26T09:45:46.871Z,96871.31
2023-03-26T09:51:20.492Z,96881.06
2023-03-26T09:56:36.841Z,96874.78
2023-03-26T10:01:52.229Z,96875.88
2023-03-26T10:07:02.852Z,96868.31
2023-03-26T10:12:20.186Z,96864.84
2023-03-26T10:17:37.328Z,96771.06
2023-03-26T10:22:53.351Z,96859.28
2023-03-26T10:28:11.276Z,96812.44
2023-03-26T10:33:29.480Z,96663.25
2023-03-26T10:38:50.559Z,96832.34
2023-03-26T10:44:32.676Z,96805.69
2023-03-26T10:50:16.582Z,96851.47
2023-03-26T10:55:33.210Z,96869.91
2023-03-26T11:00:43.843Z,96808.69
2023-03-26T11:05:52.530Z,96850.31
2023-03-26T11:11:06.313Z,96639.09
2023-03-26T11:16:24.464Z,96833.78
2023-03-26T11:21:35.662Z,96726.25
2023-03-26T11:26:52.992Z,96781.41
2023-03-26T11:32:06.081Z,96719.22
2023-03-26T11:37:17.626Z,96659.22
2023-03-26T11:42:57.335Z,96842.53
2023-03-26T11:48:09.503Z,96806.56
2023-03-26T11:53:16.357Z,96845.38
2023-03-26T11:58:31.130Z,96836.47
2023-03-26T12:03:34.994Z,96857.78
2023-03-26T12:08:42.457Z,96872.41
2023-03-26T12:13:56.309Z,96857.25
2023-03-26T12:19:04.025Z,96828.03
2023-03-26T12:24:27.243Z,96837.63
2023-03-26T12:29:34.582Z,96497.66
2023-03-26T12:34:39.595Z,96822.69
2023-03-26T12:40:09.351Z,96796.28
2023-03-26T12:45:15.810Z,96801.22
2023-03-26T12:50:34.223Z,96799.44
2023-03-26T12:55:51.218Z,96785.16
2023-03-26T13:01:08.786Z,96747.88
2023-03-26T13:06:31.244Z,96779.59
2023-03-26T13:12:09.177Z,96791.78
2023-03-26T13:17:23.807Z,96657.09
2023-03-26T13:22:36.880Z,96722.34
2023-03-26T13:27:52.363Z,96789.09
2023-03-26T13:33:24.733Z,96768.31
2023-03-26T13:38:41.127Z,96756.00
2023-03-26T13:44:02.252Z,96758.47
2023-03-26T13:49:13.160Z,96693.69
2023-03-26T13:54:22.720Z,96751.41
2023-03-26T13:59:32.739Z,96723.38
2023-03-26T14:04:43.845Z,96734.84
2023-03-26T14:09:52.412Z,96555.47
2023-03-26T14:15:01.952Z,96708.44
2023-03-26T14:20:40.133Z,96727.63
2023-03-26T14:25:56.275Z,96713.75
2023-03-26T14:31:19.525Z,96615.00
2023-03-26T14:36:39.700Z,96684.13
2023-03-26T14:41:51.244Z,96725.66
2023-03-26T14:47:09.824Z,96775.19
2023-03-26T14:52:27.455Z,96558.38
2023-03-26T14:58:10.632Z,96789.94
2023-03-26T15:03:48.684Z,96871.19
2023-03-26T15:09:29.498Z,96843.94
2023-03-26T15:15:11.166Z,96827.06
2023-03-26T15:20:48.049Z,96834.94
2023-03-26T15:26:24.687Z,96835.22
2023-03-26T15:31:43.292Z,96813.16
2023-03-26T15:37:31.882Z,96617.81
2023-03-26T15:42:47.493Z,96773.31
2023-03-26T15:48:01.459Z,96815.88
2023-03-26T15:53:21.345Z,96773.34
2023-03-26T15:58:36.307Z,96812.16
2023-03-26T16:03:49.568Z,96812.19
2023-03-26T16:09:15.136Z,96778.88
2023-03-26T16:14:23.693Z,96802.56
2023-03-26T16:20:04.794Z,96813.50
2023-03-26T16:25:27.298Z,96790.97
2023-03-26T16:30:34.027Z,96833.66
2023-03-26T16:36:03.627Z,96782.19
2023-03-26T16:41:17.529Z,96838.16
2023-03-26T16:46:32.491Z,96866.50
2023-03-26T16:51:55.404Z,96875.72
2023-03-26T16:57:07.879Z,96822.34
2023-03-26T17:02:21.650Z,96881.75
2023-03-26T17:07:34.159Z,96653.78
2023-03-26T17:12:42.896Z,96871.00
2023-03-26T17:18:03.376Z,96890.41
2023-03-26T17:23:26.040Z,96815.25
2023-03-26T17:28:44.935Z,96674.97
2023-03-26T17:33:49.912Z,96871.31
2023-03-26T17:39:20.005Z,96879.38
2023-03-26T17:44:46.322Z,96880.88
2023-03-26T17:49:52.672Z,96885.75
2023-03-26T17:54:58.195Z,96883.06
2023-03-26T18:00:05.868Z,96883.53
2023-03-26T18:05:17.679Z,96884.41
2023-03-26T18:10:39.979Z,96822.47
2023-03-26T18:15:54.928Z,96823.00
2023-03-26T18:21:04.458Z,96837.78
2023-03-26T18:26:15.533Z,96792.06
2023-03-26T18:31:21.452Z,96845.75
2023-03-26T18:36:27.847Z,96859.84
2023-03-26T18:41:39.334Z,96876.84
2023-03-26T18:46:43.734Z,96888.16
2023-03-26T18:51:56.870Z,96881.22
2023-03-26T18:57:16.126Z,96669.41
2023-03-26T19:02:21.920Z,96808.69
2023-03-26T19:07:27.454Z,96876.72
2023-03-26T19:12:35.890Z,96888.69
2023-03-26T19:17:41.742Z,96873.06
2023-03-26T19:22:46.554Z,96732.22
2023-03-26T19:27:51.866Z,96847.34
2023-03-26T19:32:56.604Z,96779.28
2023-03-26T19:38:23.603Z,96869.06
2023-03-26T19:43:28.813Z,96635.69
2023-03-26T19:48:46.352Z,96862.25
2023-03-26T19:53:54.354Z,96875.00
2023-03-26T19:58:59.567Z,96635.38
2023-03-26T20:04:06.464Z,96815.16
2023-03-26T20:09:10.248Z,96854.09
2023-03-26T20:14:17.092Z,96870.13
2023-03-26T20:19:20.770Z,96862.19
2023-03-26T20:24:26.154Z,96849.69
2023-03-26T20:29:31.081Z,96808.53
2023-03-26T20:34:35.018Z,96700.56
2023-03-26T20:39:39.803Z,96858.44
2023-03-26T20:44:44.869Z,96808.78
2023-03-26T20:49:56.224Z,96526.88
2023-03-26T20:55:00.929Z,96841.78
2023-03-26T21:00:15.054Z,96778.00
2023-03-26T21:05:24.288Z,96800.78
2023-03-26T21:10:29.715Z,96745.44
2023-03-26T21:15:35.908Z,96795.69
2023-03-26T21:20:41.473Z,96660.00
2023-03-26T21:26:01.485Z,96847.81
2023-03-26T21:31:08.883Z,96839.19
2023-03-26T21:36:13.440Z,96823.19
2023-03-26T21:41:27.028Z,96815.41
2023-03-26T21:46:32.858Z,96475.88
2023-03-26T21:51:38.055Z,96847.63
2023-03-26T21:56:49.855Z,96872.44
2023-03-26T22:02:01.324Z,96850.53
2023-03-26T22:07:12.542Z,96826.09
2023-03-26T22:12:16.859Z,96903.66
2023-03-26T22:17:22.466Z,96882.72
2023-03-26T22:22:26.332Z,96751.22
2023-03-26T22:27:29.992Z,96817.28
2023-03-26T22:32:36.790Z,96893.78
2023-03-26T22:37:40.550Z,96854.81
2023-03-26T22:42:44.049Z,96681.69
2023-03-26T22:47:49.004Z,96907.78
2023-03-26T22:52:52.624Z,96911.06
2023-03-26T22:57:56.324Z,96916.78
2023-03-26T23:03:01.933Z,96917.19
2023-03-26T23:08:06.151Z,96941.44
2023-03-26T23:13:09.636Z,96945.53
2023-03-26T23:18:14.459Z,96944.28
2023-03-26T23:23:18.547Z,96904.06
2023-03-26T23:28:24.066Z,96961.56
2023-03-26T23:33:31.812Z,96719.81
2023-03-26T23:38:43.048Z,96990.28
2023-03-26T23:43:53.776Z,96959.06
2023-03-26T23:49:02.201Z,97002.00
2023-03-26T23:54:06.671Z,97016.19
2023-03-26T23:59:10.248Z,96987.38
